sensor_id;sensor_type;location;lat;lon;timestamp;temperature;humidity
52509;DHT22;38420;53.150;6.370;2022-10-28T00:02:09;15.30;99.90
52509;DHT22;38420;53.150;6.370;2022-10-28T00:04:34;14.90;99.90
52509;DHT22;38420;53.150;6.370;2022-10-28T00:07:00;14.80;99.90
52509;DHT22;38420;53.150;6.370;2022-10-28T00:09:25;15.00;99.90
52509;DHT22;38420;53.150;6.370;2022-10-28T00:11:51;15.20;99.90
52509;DHT22;38420;53.150;6.370;2022-10-28T00:14:17;14.80;99.90
52509;DHT22;38420;53.150;6.370;2022-10-28T00:16:42;14.80;99.90
52509;DHT22;38420;53.150;6.370;2022-10-28T00:19:10;15.30;99.90
52509;DHT22;38420;53.150;6.370;2022-10-28T00:21:38;15.10;99.90
52509;DHT22;38420;53.150;6.370;2022-10-28T00:24:05;15.50;99.90
52509;DHT22;38420;53.150;6.370;2022-10-28T00:26:32;15.30;99.90
52509;DHT22;38420;53.150;6.370;2022-10-28T00:28:59;15.00;99.90
52509;DHT22;38420;53.150;6.370;2022-10-28T00:31:26;15.60;99.90
52509;DHT22;38420;53.150;6.370;2022-10-28T00:33:53;15.10;99.90
52509;DHT22;38420;53.150;6.370;2022-10-28T00:36:30;15.80;99.90
52509;DHT22;38420;53.150;6.370;2022-10-28T00:38:58;15.00;99.90
52509;DHT22;38420;53.150;6.370;2022-10-28T00:41:30;15.60;99.90
52509;DHT22;38420;53.150;6.370;2022-10-28T00:43:58;15.50;99.90
52509;DHT22;38420;53.150;6.370;2022-10-28T00:46:29;15.00;99.90
52509;DHT22;38420;53.150;6.370;2022-10-28T00:52:08;15.00;99.90
52509;DHT22;38420;53.150;6.370;2022-10-28T00:54:36;14.90;99.90
52509;DHT22;38420;53.150;6.370;2022-10-28T00:57:05;15.20;99.90
52509;DHT22;38420;53.150;6.370;2022-10-28T00:59:36;15.60;99.90
52509;DHT22;38420;53.150;6.370;2022-10-28T01:02:03;15.50;99.90
52509;DHT22;38420;53.150;6.370;2022-10-28T01:04:29;15.00;99.90
52509;DHT22;38420;53.150;6.370;2022-10-28T01:06:56;15.00;99.90
52509;DHT22;38420;53.150;6.370;2022-10-28T01:09:21;15.60;99.90
52509;DHT22;38420;53.150;6.370;2022-10-28T01:22:50;15.60;99.90
52509;DHT22;38420;53.150;6.370;2022-10-28T01:25:26;15.00;99.90
52509;DHT22;38420;53.150;6.370;2022-10-28T01:28:45;15.20;99.90
52509;DHT22;38420;53.150;6.370;2022-10-28T01:34:39;15.50;99.90
52509;DHT22;38420;53.150;6.370;2022-10-28T01:37:35;14.90;99.90
52509;DHT22;38420;53.150;6.370;2022-10-28T01:40:14;15.50;99.90
52509;DHT22;38420;53.150;6.370;2022-10-28T01:42:52;14.90;99.90
52509;DHT22;38420;53.150;6.370;2022-10-28T01:45:24;14.90;99.90
52509;DHT22;38420;53.150;6.370;2022-10-28T01:48:00;15.40;99.90
52509;DHT22;38420;53.150;6.370;2022-10-28T01:53:10;15.20;99.90
52509;DHT22;38420;53.150;6.370;2022-10-28T01:55:41;15.30;99.90
52509;DHT22;38420;53.150;6.370;2022-10-28T01:58:09;14.90;99.90
52509;DHT22;38420;53.150;6.370;2022-10-28T02:00:37;14.70;99.90
52509;DHT22;38420;53.150;6.370;2022-10-28T02:03:05;14.60;99.90
52509;DHT22;38420;53.150;6.370;2022-10-28T02:05:50;14.60;99.90
52509;DHT22;38420;53.150;6.370;2022-10-28T02:16:24;15.00;99.90
52509;DHT22;38420;53.150;6.370;2022-10-28T02:19:11;15.10;99.90
52509;DHT22;38420;53.150;6.370;2022-10-28T02:24:38;14.40;99.90
52509;DHT22;38420;53.150;6.370;2022-10-28T02:30:06;14.70;99.90
52509;DHT22;38420;53.150;6.370;2022-10-28T02:32:43;14.40;99.90
52509;DHT22;38420;53.150;6.370;2022-10-28T02:35:14;14.70;99.90
52509;DHT22;38420;53.150;6.370;2022-10-28T02:37:43;14.70;99.90
52509;DHT22;38420;53.150;6.370;2022-10-28T02:40:14;14.60;99.90
52509;DHT22;38420;53.150;6.370;2022-10-28T02:42:47;14.10;99.90
52509;DHT22;38420;53.150;6.370;2022-10-28T02:45:21;14.40;99.90
52509;DHT22;38420;53.150;6.370;2022-10-28T02:47:55;14.20;99.90
52509;DHT22;38420;53.150;6.370;2022-10-28T02:50:29;14.00;99.90
52509;DHT22;38420;53.150;6.370;2022-10-28T02:52:58;14.60;99.90
52509;DHT22;38420;53.150;6.370;2022-10-28T02:55:31;14.30;99.90
52509;DHT22;38420;53.150;6.370;2022-10-28T02:57:59;14.60;99.90
52509;DHT22;38420;53.150;6.370;2022-10-28T03:00:24;14.10;99.90
52509;DHT22;38420;53.150;6.370;2022-10-28T03:02:50;14.60;99.90
52509;DHT22;38420;53.150;6.370;2022-10-28T03:05:16;14.50;99.90
52509;DHT22;38420;53.150;6.370;2022-10-28T03:07:41;14.50;99.90
52509;DHT22;38420;53.150;6.370;2022-10-28T03:10:08;14.10;99.90
52509;DHT22;38420;53.150;6.370;2022-10-28T03:12:34;14.30;99.90
52509;DHT22;38420;53.150;6.370;2022-10-28T03:14:59;14.00;99.90
52509;DHT22;38420;53.150;6.370;2022-10-28T03:17:26;14.50;99.90
52509;DHT22;38420;53.150;6.370;2022-10-28T03:19:51;14.60;99.90
52509;DHT22;38420;53.150;6.370;2022-10-28T03:22:17;14.60;99.90
52509;DHT22;38420;53.150;6.370;2022-10-28T03:24:42;14.50;99.90
52509;DHT22;38420;53.150;6.370;2022-10-28T03:27:08;14.00;99.90
52509;DHT22;38420;53.150;6.370;2022-10-28T03:29:33;14.30;99.90
52509;DHT22;38420;53.150;6.370;2022-10-28T03:31:59;14.50;99.90
52509;DHT22;38420;53.150;6.370;2022-10-28T03:34:25;14.10;99.90
52509;DHT22;38420;53.150;6.370;2022-10-28T03:36:50;14.40;99.90
52509;DHT22;38420;53.150;6.370;2022-10-28T03:39:16;14.30;99.90
52509;DHT22;38420;53.150;6.370;2022-10-28T03:41:41;13.90;99.90
52509;DHT22;38420;53.150;6.370;2022-10-28T03:44:07;14.00;99.90
52509;DHT22;38420;53.150;6.370;2022-10-28T03:46:32;13.80;99.90
52509;DHT22;38420;53.150;6.370;2022-10-28T03:48:58;13.80;99.90
52509;DHT22;38420;53.150;6.370;2022-10-28T03:51:24;14.30;99.90
52509;DHT22;38420;53.150;6.370;2022-10-28T03:53:49;13.70;99.90
52509;DHT22;38420;53.150;6.370;2022-10-28T03:56:15;14.30;99.90
52509;DHT22;38420;53.150;6.370;2022-10-28T03:58:41;14.30;99.90
52509;DHT22;38420;53.150;6.370;2022-10-28T04:01:06;14.30;99.90
52509;DHT22;38420;53.150;6.370;2022-10-28T04:03:32;13.60;99.90
52509;DHT22;38420;53.150;6.370;2022-10-28T04:05:57;13.70;99.90
52509;DHT22;38420;53.150;6.370;2022-10-28T04:08:23;13.60;99.90
52509;DHT22;38420;53.150;6.370;2022-10-28T04:10:49;14.20;99.90
52509;DHT22;38420;53.150;6.370;2022-10-28T04:13:15;13.60;99.90
52509;DHT22;38420;53.150;6.370;2022-10-28T04:15:41;14.30;99.90
52509;DHT22;38420;53.150;6.370;2022-10-28T04:18:06;13.60;99.90
52509;DHT22;38420;53.150;6.370;2022-10-28T04:20:32;13.80;99.90
52509;DHT22;38420;53.150;6.370;2022-10-28T04:22:58;13.80;99.90
52509;DHT22;38420;53.150;6.370;2022-10-28T04:25:25;13.80;99.90
52509;DHT22;38420;53.150;6.370;2022-10-28T04:27:51;14.80;99.90
52509;DHT22;38420;53.150;6.370;2022-10-28T04:30:16;13.60;99.90
52509;DHT22;38420;53.150;6.370;2022-10-28T04:32:43;13.90;99.90
52509;DHT22;38420;53.150;6.370;2022-10-28T04:35:09;13.60;99.90
52509;DHT22;38420;53.150;6.370;2022-10-28T04:37:35;14.20;99.90
52509;DHT22;38420;53.150;6.370;2022-10-28T04:40:01;13.70;99.90
52509;DHT22;38420;53.150;6.370;2022-10-28T04:42:27;14.20;99.90
52509;DHT22;38420;53.150;6.370;2022-10-28T04:44:52;14.10;99.90
52509;DHT22;38420;53.150;6.370;2022-10-28T04:47:18;13.90;99.90
52509;DHT22;38420;53.150;6.370;2022-10-28T04:49:44;14.00;99.90
52509;DHT22;38420;53.150;6.370;2022-10-28T04:52:10;13.40;99.90
52509;DHT22;38420;53.150;6.370;2022-10-28T04:54:35;13.70;99.90
52509;DHT22;38420;53.150;6.370;2022-10-28T04:57:01;13.90;99.90
52509;DHT22;38420;53.150;6.370;2022-10-28T04:59:27;14.10;99.90
52509;DHT22;38420;53.150;6.370;2022-10-28T05:01:53;14.10;99.90
52509;DHT22;38420;53.150;6.370;2022-10-28T05:04:18;13.30;99.90
52509;DHT22;38420;53.150;6.370;2022-10-28T05:06:44;13.60;99.90
52509;DHT22;38420;53.150;6.370;2022-10-28T05:09:09;13.30;99.90
52509;DHT22;38420;53.150;6.370;2022-10-28T05:11:35;14.10;99.90
52509;DHT22;38420;53.150;6.370;2022-10-28T05:14:01;13.30;99.90
52509;DHT22;38420;53.150;6.370;2022-10-28T05:16:26;13.50;99.90
52509;DHT22;38420;53.150;6.370;2022-10-28T05:18:52;14.10;99.90
52509;DHT22;38420;53.150;6.370;2022-10-28T05:21:17;14.00;99.90
52509;DHT22;38420;53.150;6.370;2022-10-28T05:23:43;13.50;99.90
52509;DHT22;38420;53.150;6.370;2022-10-28T05:26:09;13.80;99.90
52509;DHT22;38420;53.150;6.370;2022-10-28T05:28:34;13.40;99.90
52509;DHT22;38420;53.150;6.370;2022-10-28T05:31:00;14.00;99.90
52509;DHT22;38420;53.150;6.370;2022-10-28T05:33:25;13.40;99.90
52509;DHT22;38420;53.150;6.370;2022-10-28T05:35:51;13.30;99.90
52509;DHT22;38420;53.150;6.370;2022-10-28T05:38:17;13.70;99.90
52509;DHT22;38420;53.150;6.370;2022-10-28T05:40:42;14.00;99.90
52509;DHT22;38420;53.150;6.370;2022-10-28T05:43:08;13.30;99.90
52509;DHT22;38420;53.150;6.370;2022-10-28T05:45:34;13.50;99.90
52509;DHT22;38420;53.150;6.370;2022-10-28T05:48:00;13.70;99.90
52509;DHT22;38420;53.150;6.370;2022-10-28T05:50:26;13.90;99.90
52509;DHT22;38420;53.150;6.370;2022-10-28T05:52:53;13.50;99.90
52509;DHT22;38420;53.150;6.370;2022-10-28T05:55:21;13.60;99.90
52509;DHT22;38420;53.150;6.370;2022-10-28T05:57:48;13.40;99.90
52509;DHT22;38420;53.150;6.370;2022-10-28T06:00:15;13.80;99.90
52509;DHT22;38420;53.150;6.370;2022-10-28T06:02:42;13.30;99.90
52509;DHT22;38420;53.150;6.370;2022-10-28T06:05:08;13.20;99.90
52509;DHT22;38420;53.150;6.370;2022-10-28T06:07:34;13.60;99.90
52509;DHT22;38420;53.150;6.370;2022-10-28T06:10:01;13.60;99.90
52509;DHT22;38420;53.150;6.370;2022-10-28T06:12:26;13.80;99.90
52509;DHT22;38420;53.150;6.370;2022-10-28T06:14:52;13.20;99.90
52509;DHT22;38420;53.150;6.370;2022-10-28T06:17:18;13.60;99.90
52509;DHT22;38420;53.150;6.370;2022-10-28T06:19:43;13.60;99.90
52509;DHT22;38420;53.150;6.370;2022-10-28T06:22:09;13.10;99.90
52509;DHT22;38420;53.150;6.370;2022-10-28T06:24:34;13.80;99.90
52509;DHT22;38420;53.150;6.370;2022-10-28T06:27:00;13.80;99.90
52509;DHT22;38420;53.150;6.370;2022-10-28T06:29:25;13.30;99.90
52509;DHT22;38420;53.150;6.370;2022-10-28T06:31:51;13.90;99.90
52509;DHT22;38420;53.150;6.370;2022-10-28T06:34:17;13.40;99.90
52509;DHT22;38420;53.150;6.370;2022-10-28T06:36:42;13.40;99.90
52509;DHT22;38420;53.150;6.370;2022-10-28T06:39:08;14.00;99.90
52509;DHT22;38420;53.150;6.370;2022-10-28T06:41:34;13.20;99.90
52509;DHT22;38420;53.150;6.370;2022-10-28T06:43:59;13.70;99.90
52509;DHT22;38420;53.150;6.370;2022-10-28T06:46:25;14.00;99.90
52509;DHT22;38420;53.150;6.370;2022-10-28T06:48:53;13.70;99.90
52509;DHT22;38420;53.150;6.370;2022-10-28T06:51:18;13.90;99.90
52509;DHT22;38420;53.150;6.370;2022-10-28T06:53:48;13.60;99.90
52509;DHT22;38420;53.150;6.370;2022-10-28T06:56:14;14.10;99.90
52509;DHT22;38420;53.150;6.370;2022-10-28T06:58:40;13.50;99.90
52509;DHT22;38420;53.150;6.370;2022-10-28T07:01:06;14.10;99.90
52509;DHT22;38420;53.150;6.370;2022-10-28T07:03:31;13.30;99.90
52509;DHT22;38420;53.150;6.370;2022-10-28T07:05:57;13.30;99.90
52509;DHT22;38420;53.150;6.370;2022-10-28T07:08:23;14.00;99.90
52509;DHT22;38420;53.150;6.370;2022-10-28T07:10:53;14.30;99.90
52509;DHT22;38420;53.150;6.370;2022-10-28T07:13:19;14.20;99.90
52509;DHT22;38420;53.150;6.370;2022-10-28T07:15:53;13.90;99.90
52509;DHT22;38420;53.150;6.370;2022-10-28T07:18:20;13.60;99.90
52509;DHT22;38420;53.150;6.370;2022-10-28T07:20:45;14.00;99.90
52509;DHT22;38420;53.150;6.370;2022-10-28T07:23:11;14.40;99.90
52509;DHT22;38420;53.150;6.370;2022-10-28T07:25:37;14.50;99.90
52509;DHT22;38420;53.150;6.370;2022-10-28T07:28:03;13.80;99.90
52509;DHT22;38420;53.150;6.370;2022-10-28T07:30:29;14.50;99.90
52509;DHT22;38420;53.150;6.370;2022-10-28T07:32:54;14.70;99.90
52509;DHT22;38420;53.150;6.370;2022-10-28T07:35:22;13.90;99.90
52509;DHT22;38420;53.150;6.370;2022-10-28T07:37:48;13.90;99.90
52509;DHT22;38420;53.150;6.370;2022-10-28T07:40:14;14.70;99.90
52509;DHT22;38420;53.150;6.370;2022-10-28T07:42:39;14.00;99.90
52509;DHT22;38420;53.150;6.370;2022-10-28T07:45:05;14.90;99.90
52509;DHT22;38420;53.150;6.370;2022-10-28T07:47:31;15.00;99.90
52509;DHT22;38420;53.150;6.370;2022-10-28T07:49:56;15.10;99.90
52509;DHT22;38420;53.150;6.370;2022-10-28T07:52:22;14.90;99.90
52509;DHT22;38420;53.150;6.370;2022-10-28T07:54:49;14.50;99.90
52509;DHT22;38420;53.150;6.370;2022-10-28T07:57:15;14.50;99.90
52509;DHT22;38420;53.150;6.370;2022-10-28T07:59:40;14.60;99.90
52509;DHT22;38420;53.150;6.370;2022-10-28T08:02:06;15.30;99.90
52509;DHT22;38420;53.150;6.370;2022-10-28T08:04:32;15.40;99.90
52509;DHT22;38420;53.150;6.370;2022-10-28T08:06:57;14.80;99.90
52509;DHT22;38420;53.150;6.370;2022-10-28T08:09:23;15.50;99.90
52509;DHT22;38420;53.150;6.370;2022-10-28T08:11:49;15.30;99.90
52509;DHT22;38420;53.150;6.370;2022-10-28T08:14:14;15.60;99.90
52509;DHT22;38420;53.150;6.370;2022-10-28T08:16:40;15.80;99.90
52509;DHT22;38420;53.150;6.370;2022-10-28T08:19:05;15.80;99.90
52509;DHT22;38420;53.150;6.370;2022-10-28T08:21:31;15.90;99.90
52509;DHT22;38420;53.150;6.370;2022-10-28T08:23:57;16.00;99.90
52509;DHT22;38420;53.150;6.370;2022-10-28T08:26:22;15.50;99.90
52509;DHT22;38420;53.150;6.370;2022-10-28T08:28:48;15.60;99.90
52509;DHT22;38420;53.150;6.370;2022-10-28T08:31:13;15.70;99.90
52509;DHT22;38420;53.150;6.370;2022-10-28T08:33:41;16.20;99.90
52509;DHT22;38420;53.150;6.370;2022-10-28T08:36:10;16.40;99.90
52509;DHT22;38420;53.150;6.370;2022-10-28T08:38:36;16.40;99.90
52509;DHT22;38420;53.150;6.370;2022-10-28T08:46:13;16.70;99.90
52509;DHT22;38420;53.150;6.370;2022-10-28T08:48:44;16.60;99.90
52509;DHT22;38420;53.150;6.370;2022-10-28T08:51:18;16.80;99.90
52509;DHT22;38420;53.150;6.370;2022-10-28T08:53:58;17.30;99.90
52509;DHT22;38420;53.150;6.370;2022-10-28T08:56:34;16.80;99.90
52509;DHT22;38420;53.150;6.370;2022-10-28T08:59:04;16.90;99.90
52509;DHT22;38420;53.150;6.370;2022-10-28T09:01:44;16.70;99.90
52509;DHT22;38420;53.150;6.370;2022-10-28T09:04:43;16.70;99.90
52509;DHT22;38420;53.150;6.370;2022-10-28T09:07:17;16.70;99.90
52509;DHT22;38420;53.150;6.370;2022-10-28T09:09:45;16.90;99.90
52509;DHT22;38420;53.150;6.370;2022-10-28T09:15:33;16.80;99.90
52509;DHT22;38420;53.150;6.370;2022-10-28T09:18:17;16.80;99.90
52509;DHT22;38420;53.150;6.370;2022-10-28T09:20:54;16.90;99.90
52509;DHT22;38420;53.150;6.370;2022-10-28T09:23:23;16.80;99.90
52509;DHT22;38420;53.150;6.370;2022-10-28T09:31:34;17.00;99.90
52509;DHT22;38420;53.150;6.370;2022-10-28T09:34:13;17.00;99.90
52509;DHT22;38420;53.150;6.370;2022-10-28T09:36:54;16.80;99.90
52509;DHT22;38420;53.150;6.370;2022-10-28T09:39:25;16.80;99.90
52509;DHT22;38420;53.150;6.370;2022-10-28T09:41:53;17.00;99.90
52509;DHT22;38420;53.150;6.370;2022-10-28T09:44:51;16.90;99.90
52509;DHT22;38420;53.150;6.370;2022-10-28T09:47:28;17.00;99.90
52509;DHT22;38420;53.150;6.370;2022-10-28T09:49:58;16.90;99.90
52509;DHT22;38420;53.150;6.370;2022-10-28T09:52:29;17.00;99.90
52509;DHT22;38420;53.150;6.370;2022-10-28T09:54:58;16.90;99.90
52509;DHT22;38420;53.150;6.370;2022-10-28T09:57:29;17.20;99.90
52509;DHT22;38420;53.150;6.370;2022-10-28T09:59:56;17.20;99.90
52509;DHT22;38420;53.150;6.370;2022-10-28T10:04:48;17.00;99.90
52509;DHT22;38420;53.150;6.370;2022-10-28T10:07:21;17.10;99.90
52509;DHT22;38420;53.150;6.370;2022-10-28T10:09:49;17.20;99.90
52509;DHT22;38420;53.150;6.370;2022-10-28T10:12:15;17.50;99.90
52509;DHT22;38420;53.150;6.370;2022-10-28T10:14:51;17.60;99.90
52509;DHT22;38420;53.150;6.370;2022-10-28T10:17:34;17.60;99.90
52509;DHT22;38420;53.150;6.370;2022-10-28T10:22:41;17.60;99.90
52509;DHT22;38420;53.150;6.370;2022-10-28T10:25:27;17.50;99.90
52509;DHT22;38420;53.150;6.370;2022-10-28T10:28:00;17.50;99.90
52509;DHT22;38420;53.150;6.370;2022-10-28T10:30:38;17.60;99.90
52509;DHT22;38420;53.150;6.370;2022-10-28T10:33:22;17.70;99.90
52509;DHT22;38420;53.150;6.370;2022-10-28T10:38:25;17.90;99.90
52509;DHT22;38420;53.150;6.370;2022-10-28T10:40:52;18.00;99.90
52509;DHT22;38420;53.150;6.370;2022-10-28T10:43:22;18.20;99.90
52509;DHT22;38420;53.150;6.370;2022-10-28T10:46:03;18.20;99.90
52509;DHT22;38420;53.150;6.370;2022-10-28T10:48:33;18.20;99.90
52509;DHT22;38420;53.150;6.370;2022-10-28T10:53:50;18.40;99.90
52509;DHT22;38420;53.150;6.370;2022-10-28T10:56:24;18.50;99.90
52509;DHT22;38420;53.150;6.370;2022-10-28T10:58:53;18.50;99.90
52509;DHT22;38420;53.150;6.370;2022-10-28T11:01:26;18.40;99.90
52509;DHT22;38420;53.150;6.370;2022-10-28T11:03:56;18.40;99.90
52509;DHT22;38420;53.150;6.370;2022-10-28T11:06:26;18.30;99.90
52509;DHT22;38420;53.150;6.370;2022-10-28T11:09:04;18.40;99.90
52509;DHT22;38420;53.150;6.370;2022-10-28T11:11:38;18.60;99.90
52509;DHT22;38420;53.150;6.370;2022-10-28T11:14:17;18.60;99.90
52509;DHT22;38420;53.150;6.370;2022-10-28T11:17:02;18.80;99.90
52509;DHT22;38420;53.150;6.370;2022-10-28T11:19:28;18.80;99.90
52509;DHT22;38420;53.150;6.370;2022-10-28T11:24:55;18.90;99.90
52509;DHT22;38420;53.150;6.370;2022-10-28T11:30:20;19.00;99.90
52509;DHT22;38420;53.150;6.370;2022-10-28T11:33:05;19.20;99.90
52509;DHT22;38420;53.150;6.370;2022-10-28T11:35:35;19.10;99.90
52509;DHT22;38420;53.150;6.370;2022-10-28T11:41:45;19.20;99.90
52509;DHT22;38420;53.150;6.370;2022-10-28T11:44:27;19.30;99.90
52509;DHT22;38420;53.150;6.370;2022-10-28T11:49:43;19.40;99.90
52509;DHT22;38420;53.150;6.370;2022-10-28T11:55:13;19.50;99.90
52509;DHT22;38420;53.150;6.370;2022-10-28T12:03:28;19.70;99.90
52509;DHT22;38420;53.150;6.370;2022-10-28T12:06:07;19.70;99.90
52509;DHT22;38420;53.150;6.370;2022-10-28T12:14:21;19.70;99.90
52509;DHT22;38420;53.150;6.370;2022-10-28T12:16:57;19.60;99.90
52509;DHT22;38420;53.150;6.370;2022-10-28T12:19:32;19.70;99.90
52509;DHT22;38420;53.150;6.370;2022-10-28T12:22:11;19.70;99.90
52509;DHT22;38420;53.150;6.370;2022-10-28T12:24:41;19.60;99.90
52509;DHT22;38420;53.150;6.370;2022-10-28T12:27:29;19.70;99.90
52509;DHT22;38420;53.150;6.370;2022-10-28T12:30:12;19.60;99.90
52509;DHT22;38420;53.150;6.370;2022-10-28T12:32:41;19.60;99.90
52509;DHT22;38420;53.150;6.370;2022-10-28T12:35:22;19.40;99.90
52509;DHT22;38420;53.150;6.370;2022-10-28T12:37:53;19.40;99.90
52509;DHT22;38420;53.150;6.370;2022-10-28T12:40:39;19.50;99.90
52509;DHT22;38420;53.150;6.370;2022-10-28T12:43:21;19.40;99.90
52509;DHT22;38420;53.150;6.370;2022-10-28T12:45:51;19.40;99.90
52509;DHT22;38420;53.150;6.370;2022-10-28T12:48:27;19.50;99.90
52509;DHT22;38420;53.150;6.370;2022-10-28T12:51:15;19.40;99.90
52509;DHT22;38420;53.150;6.370;2022-10-28T12:53:56;19.40;99.90
52509;DHT22;38420;53.150;6.370;2022-10-28T12:56:32;19.50;99.90
52509;DHT22;38420;53.150;6.370;2022-10-28T12:59:31;19.50;99.90
52509;DHT22;38420;53.150;6.370;2022-10-28T13:02:00;19.40;99.90
52509;DHT22;38420;53.150;6.370;2022-10-28T13:04:27;19.50;99.90
52509;DHT22;38420;53.150;6.370;2022-10-28T13:07:39;19.40;99.90
52509;DHT22;38420;53.150;6.370;2022-10-28T13:10:03;19.50;99.90
52509;DHT22;38420;53.150;6.370;2022-10-28T13:15:42;19.40;99.90
52509;DHT22;38420;53.150;6.370;2022-10-28T13:18:34;19.50;99.90
52509;DHT22;38420;53.150;6.370;2022-10-28T13:21:12;19.60;99.90
52509;DHT22;38420;53.150;6.370;2022-10-28T13:26:30;19.80;99.90
52509;DHT22;38420;53.150;6.370;2022-10-28T13:28:59;19.70;99.90
52509;DHT22;38420;53.150;6.370;2022-10-28T13:31:44;19.70;99.90
52509;DHT22;38420;53.150;6.370;2022-10-28T13:34:15;19.80;99.90
52509;DHT22;38420;53.150;6.370;2022-10-28T13:36:45;19.90;99.90
52509;DHT22;38420;53.150;6.370;2022-10-28T13:44:59;19.90;99.90
52509;DHT22;38420;53.150;6.370;2022-10-28T13:52:39;19.70;99.90
52509;DHT22;38420;53.150;6.370;2022-10-28T13:55:21;19.80;99.90
52509;DHT22;38420;53.150;6.370;2022-10-28T13:57:51;19.70;99.90
52509;DHT22;38420;53.150;6.370;2022-10-28T14:02:56;19.60;99.90
52509;DHT22;38420;53.150;6.370;2022-10-28T14:08:34;19.50;99.90
52509;DHT22;38420;53.150;6.370;2022-10-28T14:11:05;19.50;99.90
52509;DHT22;38420;53.150;6.370;2022-10-28T14:13:34;19.60;99.90
52509;DHT22;38420;53.150;6.370;2022-10-28T14:16:22;19.50;99.90
52509;DHT22;38420;53.150;6.370;2022-10-28T14:21:21;19.50;99.90
52509;DHT22;38420;53.150;6.370;2022-10-28T14:26:13;19.50;99.90
52509;DHT22;38420;53.150;6.370;2022-10-28T14:39:12;19.40;99.90
52509;DHT22;38420;53.150;6.370;2022-10-28T14:42:25;19.30;99.90
52509;DHT22;38420;53.150;6.370;2022-10-28T14:50:46;19.10;99.90
52509;DHT22;38420;53.150;6.370;2022-10-28T14:53:24;19.20;99.90
52509;DHT22;38420;53.150;6.370;2022-10-28T14:56:02;19.10;99.90
52509;DHT22;38420;53.150;6.370;2022-10-28T14:58:34;19.20;99.90
52509;DHT22;38420;53.150;6.370;2022-10-28T15:03:47;19.00;99.90
52509;DHT22;38420;53.150;6.370;2022-10-28T15:06:32;18.90;99.90
52509;DHT22;38420;53.150;6.370;2022-10-28T15:09:04;18.90;99.90
52509;DHT22;38420;53.150;6.370;2022-10-28T15:11:32;18.90;99.90
52509;DHT22;38420;53.150;6.370;2022-10-28T15:14:11;18.90;99.90
52509;DHT22;38420;53.150;6.370;2022-10-28T15:16:46;18.90;99.90
52509;DHT22;38420;53.150;6.370;2022-10-28T15:19:17;19.00;99.90
52509;DHT22;38420;53.150;6.370;2022-10-28T15:21:43;18.90;99.90
52509;DHT22;38420;53.150;6.370;2022-10-28T15:24:12;18.90;99.90
52509;DHT22;38420;53.150;6.370;2022-10-28T15:26:38;18.80;99.90
52509;DHT22;38420;53.150;6.370;2022-10-28T15:29:04;18.90;99.90
52509;DHT22;38420;53.150;6.370;2022-10-28T15:31:29;18.90;99.90
52509;DHT22;38420;53.150;6.370;2022-10-28T15:33:55;18.70;99.90
52509;DHT22;38420;53.150;6.370;2022-10-28T15:36:22;18.80;99.90
52509;DHT22;38420;53.150;6.370;2022-10-28T15:39:05;18.80;99.90
52509;DHT22;38420;53.150;6.370;2022-10-28T15:41:41;18.60;99.90
52509;DHT22;38420;53.150;6.370;2022-10-28T15:44:34;18.60;99.90
52509;DHT22;38420;53.150;6.370;2022-10-28T15:47:14;18.60;99.90
52509;DHT22;38420;53.150;6.370;2022-10-28T15:49:40;18.60;99.90
52509;DHT22;38420;53.150;6.370;2022-10-28T15:54:42;18.40;99.90
52509;DHT22;38420;53.150;6.370;2022-10-28T15:57:20;18.40;99.90
52509;DHT22;38420;53.150;6.370;2022-10-28T15:59:46;18.20;99.90
52509;DHT22;38420;53.150;6.370;2022-10-28T16:02:43;18.40;99.90
52509;DHT22;38420;53.150;6.370;2022-10-28T16:10:48;18.10;99.90
52509;DHT22;38420;53.150;6.370;2022-10-28T16:15:57;18.00;99.90
52509;DHT22;38420;53.150;6.370;2022-10-28T16:18:25;17.90;99.90
52509;DHT22;38420;53.150;6.370;2022-10-28T16:20:52;18.10;99.90
52509;DHT22;38420;53.150;6.370;2022-10-28T16:23:21;18.00;99.90
52509;DHT22;38420;53.150;6.370;2022-10-28T16:25:47;18.00;99.90
52509;DHT22;38420;53.150;6.370;2022-10-28T16:28:20;17.90;99.90
52509;DHT22;38420;53.150;6.370;2022-10-28T16:30:49;17.90;99.90
52509;DHT22;38420;53.150;6.370;2022-10-28T16:33:14;17.90;99.90
52509;DHT22;38420;53.150;6.370;2022-10-28T16:35:40;17.90;99.90
52509;DHT22;38420;53.150;6.370;2022-10-28T16:38:10;17.80;99.90
52509;DHT22;38420;53.150;6.370;2022-10-28T16:40:36;17.90;99.90
52509;DHT22;38420;53.150;6.370;2022-10-28T16:43:02;17.80;99.90
52509;DHT22;38420;53.150;6.370;2022-10-28T16:45:28;17.80;99.90
52509;DHT22;38420;53.150;6.370;2022-10-28T16:47:53;17.80;99.90
52509;DHT22;38420;53.150;6.370;2022-10-28T16:50:19;17.90;99.90
52509;DHT22;38420;53.150;6.370;2022-10-28T16:52:45;17.70;99.90
52509;DHT22;38420;53.150;6.370;2022-10-28T16:55:14;17.70;99.90
52509;DHT22;38420;53.150;6.370;2022-10-28T16:57:40;17.60;99.90
52509;DHT22;38420;53.150;6.370;2022-10-28T17:00:08;17.80;99.90
52509;DHT22;38420;53.150;6.370;2022-10-28T17:02:34;17.60;99.90
52509;DHT22;38420;53.150;6.370;2022-10-28T17:05:00;17.70;99.90
52509;DHT22;38420;53.150;6.370;2022-10-28T17:07:29;17.50;99.90
52509;DHT22;38420;53.150;6.370;2022-10-28T17:09:55;17.50;99.90
52509;DHT22;38420;53.150;6.370;2022-10-28T17:12:23;17.60;99.90
52509;DHT22;38420;53.150;6.370;2022-10-28T17:14:49;17.80;99.90
52509;DHT22;38420;53.150;6.370;2022-10-28T17:17:15;17.50;99.90
52509;DHT22;38420;53.150;6.370;2022-10-28T17:19:41;17.50;99.90
52509;DHT22;38420;53.150;6.370;2022-10-28T17:22:08;17.70;99.90
52509;DHT22;38420;53.150;6.370;2022-10-28T17:24:34;17.70;99.90
52509;DHT22;38420;53.150;6.370;2022-10-28T17:27:00;17.70;99.90
52509;DHT22;38420;53.150;6.370;2022-10-28T17:29:26;17.80;99.90
52509;DHT22;38420;53.150;6.370;2022-10-28T17:31:52;17.70;99.90
52509;DHT22;38420;53.150;6.370;2022-10-28T17:34:17;17.50;99.90
52509;DHT22;38420;53.150;6.370;2022-10-28T17:36:43;17.70;99.90
52509;DHT22;38420;53.150;6.370;2022-10-28T17:39:09;17.50;99.90
52509;DHT22;38420;53.150;6.370;2022-10-28T17:41:34;17.50;99.90
52509;DHT22;38420;53.150;6.370;2022-10-28T17:44:00;17.70;99.90
52509;DHT22;38420;53.150;6.370;2022-10-28T17:46:25;17.70;99.90
52509;DHT22;38420;53.150;6.370;2022-10-28T17:48:51;17.70;99.90
52509;DHT22;38420;53.150;6.370;2022-10-28T17:51:16;17.60;99.90
52509;DHT22;38420;53.150;6.370;2022-10-28T17:53:44;17.60;99.90
52509;DHT22;38420;53.150;6.370;2022-10-28T17:56:09;17.40;99.90
52509;DHT22;38420;53.150;6.370;2022-10-28T17:58:35;17.50;99.90
52509;DHT22;38420;53.150;6.370;2022-10-28T18:01:06;17.60;99.90
52509;DHT22;38420;53.150;6.370;2022-10-28T18:03:32;17.50;99.90
52509;DHT22;38420;53.150;6.370;2022-10-28T18:06:10;17.20;99.90
52509;DHT22;38420;53.150;6.370;2022-10-28T18:08:38;17.10;99.90
52509;DHT22;38420;53.150;6.370;2022-10-28T18:11:05;17.40;99.90